Time;durP1;ratioP1;P1;durP2;ratioP2;P2;SDS_P1;SDS_P2;PMS_P1;PMS_P2;Temp;Humidity;BMP_temperature;BMP_pressure;BME280_temperature;BME280_humidity;BME280_pressure;Samples;Min_cycle;Max_cycle;Signal;HPM_P1;HPM_P2
2022/10/25 00:01:38;;;;;;;2.17;1.10;;;23.10;99.90;;;;;;5012713;28;20563;-89
2022/10/25 00:04:10;;;;;;;1.13;1.02;;;23.20;99.90;;;;;;5009675;28;20222;-90
2022/10/25 00:06:41;;;;;;;1.58;1.25;;;23.20;99.90;;;;;;5006027;28;20204;-88
2022/10/25 00:09:13;;;;;;;1.10;1.00;;;23.40;99.90;;;;;;5012923;28;20212;-91
2022/10/25 00:11:44;;;;;;;4.95;1.20;;;23.40;99.90;;;;;;5011143;28;20202;-89
2022/10/25 00:14:18;;;;;;;1.35;1.20;;;23.30;99.90;;;;;;5012061;28;20682;-90
2022/10/25 00:16:51;;;;;;;3.67;1.10;;;23.40;99.90;;;;;;5007605;28;20583;-89
2022/10/25 00:19:22;;;;;;;0.90;0.90;;;23.40;99.90;;;;;;4994599;28;20203;-89
2022/10/25 00:21:53;;;;;;;1.08;1.00;;;23.50;99.90;;;;;;5018522;28;20197;-90
2022/10/25 00:24:24;;;;;;;2.58;1.00;;;23.50;99.90;;;;;;4996661;28;20226;-87
2022/10/25 00:26:59;;;;;;;1.45;1.00;;;23.50;99.90;;;;;;5006643;28;20253;-88
2022/10/25 00:29:30;;;;;;;1.02;1.00;;;23.50;99.90;;;;;;5014455;28;20207;-90
2022/10/25 00:32:04;;;;;;;0.80;0.80;;;23.60;99.90;;;;;;5009651;28;20658;-89
2022/10/25 00:34:35;;;;;;;2.45;0.95;;;23.70;99.90;;;;;;5013110;28;20209;-89
2022/10/25 00:37:06;;;;;;;1.75;1.00;;;23.90;99.90;;;;;;5011325;28;20201;-90
2022/10/25 00:39:38;;;;;;;1.50;1.00;;;24.00;99.90;;;;;;4996763;28;20707;-87
2022/10/25 00:42:12;;;;;;;0.95;0.90;;;24.20;99.90;;;;;;5034050;28;20248;-89
2022/10/25 00:44:57;;;;;;;2.13;1.15;;;24.40;99.90;;;;;;5018271;28;20236;-89
2022/10/25 00:47:46;;;;;;;1.48;0.80;;;24.50;99.90;;;;;;5025801;28;20213;-90
2022/10/25 00:50:34;;;;;;;1.15;0.98;;;24.70;99.90;;;;;;5012928;28;20194;-90
2022/10/25 00:53:11;;;;;;;1.60;1.02;;;24.80;99.90;;;;;;5012227;28;20205;-90
2022/10/25 00:55:48;;;;;;;1.85;1.08;;;25.00;99.90;;;;;;5018203;28;20216;-89
2022/10/25 00:58:23;;;;;;;0.80;0.80;;;25.20;99.90;;;;;;5034391;28;20200;-90
2022/10/25 01:00:59;;;;;;;2.35;1.00;;;25.40;99.90;;;;;;5028788;28;20202;-90
2022/10/25 01:03:36;;;;;;;2.25;1.00;;;25.60;99.90;;;;;;4996892;28;20660;-91
2022/10/25 01:06:09;;;;;;;0.90;0.90;;;25.70;99.90;;;;;;5015715;28;20229;-87
2022/10/25 01:08:42;;;;;;;2.60;1.05;;;25.90;99.90;;;;;;5013701;28;20204;-89
2022/10/25 01:11:16;;;;;;;1.02;0.93;;;26.00;99.90;;;;;;5008242;28;20205;-88
2022/10/25 01:13:48;;;;;;;1.58;1.00;;;26.00;99.90;;;;;;5023319;28;20211;-88
2022/10/25 01:16:26;;;;;;;1.20;1.10;;;25.90;99.90;;;;;;5032696;28;20205;-89
2022/10/25 01:19:13;;;;;;;1.30;1.20;;;25.90;99.90;;;;;;5036960;28;20205;-89
2022/10/25 01:21:50;;;;;;;2.15;1.05;;;26.00;99.90;;;;;;5008466;28;20201;-90
2022/10/25 01:24:52;;;;;;;1.30;1.00;;;26.20;99.90;;;;;;5013962;28;20593;-90
2022/10/25 01:27:55;;;;;;;1.30;1.20;;;26.20;99.90;;;;;;5008914;28;20291;-91
2022/10/25 01:30:28;;;;;;;1.30;1.20;;;26.10;99.90;;;;;;4992588;28;20292;-89
2022/10/25 01:33:15;;;;;;;1.30;1.20;;;26.00;99.90;;;;;;5012995;28;20205;-91
2022/10/25 01:35:54;;;;;;;1.38;1.27;;;26.10;99.90;;;;;;5012838;28;20206;-92
2022/10/25 01:38:40;;;;;;;1.30;1.15;;;26.30;99.90;;;;;;5012019;28;20209;-90
2022/10/25 01:41:20;;;;;;;1.10;1.10;;;26.40;99.90;;;;;;5022684;28;20223;-87
2022/10/25 01:44:06;;;;;;;1.55;1.40;;;26.60;99.90;;;;;;5025379;28;20477;-89
2022/10/25 01:46:45;;;;;;;2.08;1.17;;;26.80;99.90;;;;;;5023944;28;20212;-88
2022/10/25 01:49:23;;;;;;;1.42;1.20;;;26.90;99.90;;;;;;5015891;28;20206;-89
2022/10/25 01:51:54;;;;;;;1.83;1.20;;;26.90;99.90;;;;;;5013904;28;20228;-89
2022/10/25 01:54:27;;;;;;;1.30;1.20;;;26.80;99.90;;;;;;5013708;28;20212;-89
2022/10/25 01:57:12;;;;;;;1.33;1.20;;;27.00;99.90;;;;;;5013011;28;20198;-91
2022/10/25 02:00:09;;;;;;;4.10;1.00;;;27.00;99.90;;;;;;5012258;28;20649;-89
2022/10/25 02:03:01;;;;;;;2.40;1.13;;;27.20;99.90;;;;;;5012206;28;20657;-89
2022/10/25 02:05:46;;;;;;;3.30;1.20;;;27.10;99.90;;;;;;4996227;28;20233;-89
2022/10/25 02:08:29;;;;;;;1.30;1.17;;;27.10;99.90;;;;;;5010914;28;20194;-88
2022/10/25 02:11:07;;;;;;;1.02;1.00;;;27.20;99.90;;;;;;4993521;28;20195;-89
2022/10/25 02:13:49;;;;;;;1.48;1.38;;;27.10;99.90;;;;;;5012220;28;20216;-88
2022/10/25 02:16:25;;;;;;;1.15;1.02;;;27.20;99.90;;;;;;5003747;28;20749;-88
2022/10/25 02:19:00;;;;;;;0.90;0.90;;;27.20;99.90;;;;;;5011819;28;20193;-89
2022/10/25 02:21:38;;;;;;;1.02;0.85;;;27.30;99.90;;;;;;5011426;28;20205;-89
2022/10/25 02:24:18;;;;;;;1.30;1.15;;;27.70;99.90;;;;;;5011523;28;20201;-89
2022/10/25 02:26:52;;;;;;;1.63;1.00;;;27.90;99.90;;;;;;5011216;28;20542;-88
2022/10/25 02:29:25;;;;;;;1.90;0.90;;;28.10;99.90;;;;;;4994773;28;20194;-88
2022/10/25 02:31:57;;;;;;;1.98;1.13;;;28.40;99.90;;;;;;5025041;28;20553;-88
2022/10/25 02:34:29;;;;;;;1.13;1.02;;;28.50;99.90;;;;;;5015495;28;20265;-88
2022/10/25 02:37:05;;;;;;;1.20;1.10;;;28.60;99.90;;;;;;5012788;28;20213;-88
2022/10/25 02:39:40;;;;;;;1.40;1.13;;;28.80;99.90;;;;;;5001494;28;20206;-89
2022/10/25 02:42:12;;;;;;;3.72;0.90;;;28.70;99.90;;;;;;5019285;28;20224;-90
2022/10/25 02:44:44;;;;;;;1.00;1.00;;;28.50;99.90;;;;;;5028326;28;20281;-92
2022/10/25 02:47:16;;;;;;;1.58;1.10;;;28.50;99.90;;;;;;5002016;28;20194;-92
2022/10/25 02:49:50;;;;;;;3.03;1.60;;;28.70;99.90;;;;;;5028117;28;20690;-90
2022/10/25 02:52:25;;;;;;;6.18;1.98;;;28.90;99.90;;;;;;4992689;28;20292;-89
2022/10/25 02:54:58;;;;;;;6.63;2.13;;;29.10;99.90;;;;;;4998507;28;20202;-89
2022/10/25 02:57:36;;;;;;;6.35;2.40;;;29.10;99.90;;;;;;5011005;28;20564;-88
2022/10/25 03:00:09;;;;;;;6.25;2.30;;;29.10;99.90;;;;;;4993770;28;20197;-89
2022/10/25 03:02:41;;;;;;;8.60;3.00;;;28.70;99.90;;;;;;5008941;28;20205;-88
2022/10/25 03:05:12;;;;;;;6.70;2.35;;;28.40;99.90;;;;;;4997002;28;20269;-89
2022/10/25 03:07:45;;;;;;;7.63;2.92;;;27.90;99.90;;;;;;4989501;28;20198;-89
2022/10/25 03:10:17;;;;;;;5.50;2.33;;;27.60;99.90;;;;;;4981085;28;20200;-89
2022/10/25 03:12:49;;;;;;;8.15;2.80;;;27.40;99.90;;;;;;4998391;28;20213;-90
2022/10/25 03:15:21;;;;;;;5.45;2.50;;;27.20;99.90;;;;;;4987818;28;20194;-89
2022/10/25 03:17:53;;;;;;;7.45;3.33;;;26.90;99.90;;;;;;4989260;28;20203;-90
2022/10/25 03:20:35;;;;;;;9.43;3.03;;;26.80;99.90;;;;;;4983134;28;20314;-88
2022/10/25 03:23:08;;;;;;;8.00;2.92;;;26.70;99.90;;;;;;4982517;28;20211;-90
2022/10/25 03:25:40;;;;;;;8.77;2.90;;;26.90;99.90;;;;;;5000455;28;20230;-90
2022/10/25 03:28:11;;;;;;;12.60;2.80;;;27.30;99.90;;;;;;4993586;28;20209;-90
2022/10/25 03:30:52;;;;;;;6.43;2.70;;;27.60;99.90;;;;;;4983417;28;20193;-88
2022/10/25 03:33:27;;;;;;;5.35;2.47;;;27.80;99.90;;;;;;5012833;28;20696;-88
2022/10/25 03:36:00;;;;;;;4.95;2.70;;;28.00;99.90;;;;;;5009061;28;20204;-90
2022/10/25 03:38:38;;;;;;;7.35;2.55;;;28.10;99.90;;;;;;5004044;28;20760;-89
2022/10/25 03:41:09;;;;;;;5.47;2.60;;;28.30;99.90;;;;;;5000180;28;20222;-90
2022/10/25 03:43:41;;;;;;;5.55;2.67;;;28.30;99.90;;;;;;5011867;28;20205;-88
2022/10/25 03:46:14;;;;;;;6.03;2.72;;;28.30;99.90;;;;;;4999623;28;20230;-89
2022/10/25 03:48:46;;;;;;;5.80;2.40;;;28.40;99.90;;;;;;4999770;28;20209;-90
2022/10/25 03:51:17;;;;;;;6.07;2.75;;;28.60;99.90;;;;;;5003818;28;20241;-91
2022/10/25 03:53:53;;;;;;;8.25;2.53;;;28.60;99.90;;;;;;5020109;28;20210;-89
2022/10/25 03:56:29;;;;;;;9.77;2.80;;;28.50;99.90;;;;;;4999933;28;20202;-89
2022/10/25 03:59:01;;;;;;;6.65;2.92;;;28.50;99.90;;;;;;4998308;28;20198;-92
2022/10/25 04:01:33;;;;;;;8.50;3.00;;;28.60;99.90;;;;;;5008963;28;20229;-92
2022/10/25 04:04:06;;;;;;;7.20;2.53;;;28.50;99.90;;;;;;4999763;28;20209;-90
2022/10/25 04:06:38;;;;;;;9.85;3.00;;;28.60;99.90;;;;;;5009813;28;20240;-90
2022/10/25 04:09:13;;;;;;;6.93;2.67;;;28.30;99.90;;;;;;4995009;28;20305;-91
2022/10/25 04:11:44;;;;;;;5.63;2.83;;;28.10;99.90;;;;;;5000343;28;20209;-91
2022/10/25 04:14:15;;;;;;;5.80;3.33;;;28.20;99.90;;;;;;4979134;28;20195;-89
2022/10/25 04:16:47;;;;;;;8.40;3.22;;;28.30;99.90;;;;;;4988298;28;20203;-90
2022/10/25 04:19:18;;;;;;;9.10;3.10;;;28.00;99.90;;;;;;4975604;28;20214;-89
2022/10/25 04:21:50;;;;;;;8.88;3.20;;;27.80;99.90;;;;;;5017259;28;20202;-88
2022/10/25 04:24:23;;;;;;;5.20;3.10;;;27.90;99.90;;;;;;5002325;28;20262;-89
2022/10/25 04:26:55;;;;;;;7.35;3.10;;;27.70;99.90;;;;;;5008460;28;20226;-89
2022/10/25 04:29:27;;;;;;;5.18;2.97;;;27.60;99.90;;;;;;4995120;28;20595;-89
2022/10/25 04:31:58;;;;;;;5.65;2.90;;;27.30;99.90;;;;;;5013210;28;20534;-88
2022/10/25 04:34:30;;;;;;;7.78;3.20;;;27.10;99.90;;;;;;5014290;28;20233;-90
2022/10/25 04:37:01;;;;;;;8.77;3.00;;;26.90;99.90;;;;;;4981532;28;20284;-89
2022/10/25 04:39:38;;;;;;;6.68;3.05;;;26.70;99.90;;;;;;4960042;28;20562;-92
2022/10/25 04:42:09;;;;;;;6.22;3.00;;;26.30;99.90;;;;;;5002056;28;20221;-91
2022/10/25 04:44:42;;;;;;;9.18;3.60;;;26.20;99.90;;;;;;5019820;28;20206;-92
2022/10/25 04:47:14;;;;;;;8.68;3.58;;;26.10;99.90;;;;;;4996033;28;20230;-90
2022/10/25 04:49:47;;;;;;;7.15;3.53;;;25.90;99.90;;;;;;4988019;28;20202;-90
2022/10/25 04:52:19;;;;;;;9.25;4.00;;;25.80;99.90;;;;;;5010148;28;20233;-91
2022/10/25 04:54:53;;;;;;;10.80;4.28;;;25.60;99.90;;;;;;5014258;28;20190;-91
2022/10/25 04:57:27;;;;;;;14.25;4.53;;;25.60;99.90;;;;;;5012100;28;20565;-91
2022/10/25 04:59:58;;;;;;;10.77;4.57;;;25.50;99.90;;;;;;4984476;28;20191;-91
2022/10/25 05:02:29;;;;;;;11.65;4.22;;;25.30;99.90;;;;;;5005357;28;20206;-89
2022/10/25 05:05:02;;;;;;;7.68;3.90;;;25.10;99.90;;;;;;4999151;28;20195;-91
2022/10/25 05:07:34;;;;;;;8.13;3.58;;;25.00;99.90;;;;;;4996391;28;20595;-87
2022/10/25 05:10:08;;;;;;;5.70;3.70;;;24.90;99.90;;;;;;4993870;28;20203;-88
2022/10/25 05:12:39;;;;;;;7.82;3.70;;;24.80;99.90;;;;;;4991839;28;20206;-87
2022/10/25 05:15:11;;;;;;;4.97;2.90;;;24.80;99.90;;;;;;4990640;28;20517;-87
2022/10/25 05:17:42;;;;;;;4.00;3.08;;;24.70;99.90;;;;;;5009047;28;20202;-87
2022/10/25 05:20:14;;;;;;;5.45;3.15;;;24.60;99.90;;;;;;4996411;28;20195;-87
2022/10/25 05:22:45;;;;;;;8.60;3.17;;;24.50;99.90;;;;;;4994285;28;20210;-87
2022/10/25 05:25:18;;;;;;;5.55;3.30;;;24.60;99.90;;;;;;5012448;28;20197;-88
2022/10/25 05:27:49;;;;;;;5.88;3.17;;;24.50;99.90;;;;;;4981929;28;20195;-85
2022/10/25 05:30:22;;;;;;;5.15;2.90;;;24.50;99.90;;;;;;5010969;28;20652;-86
2022/10/25 05:32:53;;;;;;;4.78;3.40;;;24.50;99.90;;;;;;4991629;28;20198;-85
2022/10/25 05:35:24;;;;;;;9.73;3.10;;;24.50;99.90;;;;;;5002118;28;20225;-88
2022/10/25 05:37:57;;;;;;;6.55;2.90;;;24.50;99.90;;;;;;4998653;28;20214;-85
2022/10/25 05:40:31;;;;;;;7.13;3.60;;;24.50;99.90;;;;;;5008619;28;20256;-87
2022/10/25 05:43:03;;;;;;;6.53;3.50;;;24.50;99.90;;;;;;4973314;28;20223;-88
2022/10/25 05:45:35;;;;;;;5.43;3.30;;;24.60;99.90;;;;;;5003117;28;20196;-86
2022/10/25 05:48:08;;;;;;;7.57;3.30;;;24.60;99.90;;;;;;5017634;28;20203;-87
2022/10/25 05:50:39;;;;;;;7.25;2.85;;;24.60;99.90;;;;;;4995589;28;20201;-86
2022/10/25 05:53:10;;;;;;;6.78;3.00;;;24.60;99.90;;;;;;5012918;28;20602;-87
2022/10/25 05:55:47;;;;;;;6.03;2.97;;;24.70;99.90;;;;;;4994477;28;20195;-86
2022/10/25 05:58:19;;;;;;;5.47;3.08;;;24.70;99.90;;;;;;4992130;28;20198;-86
2022/10/25 06:00:50;;;;;;;4.50;2.85;;;24.80;99.90;;;;;;4988546;28;20716;-86
2022/10/25 06:03:22;;;;;;;4.78;2.65;;;24.80;99.90;;;;;;4974435;28;20257;-86
2022/10/25 06:05:54;;;;;;;6.03;2.95;;;24.80;99.90;;;;;;4999252;28;20214;-87
2022/10/25 06:08:27;;;;;;;9.52;3.38;;;24.90;99.90;;;;;;5001885;28;20570;-86
2022/10/25 06:11:05;;;;;;;6.38;3.40;;;25.20;99.90;;;;;;4994681;28;20640;-87
2022/10/25 06:13:37;;;;;;;5.80;2.83;;;25.50;99.90;;;;;;4983298;28;20205;-88
2022/10/25 06:16:13;;;;;;;4.18;3.05;;;26.00;99.90;;;;;;4994992;28;20198;-87
2022/10/25 06:18:48;;;;;;;8.02;3.13;;;26.50;99.90;;;;;;5012795;28;20656;-90
2022/10/25 06:21:21;;;;;;;5.30;3.13;;;27.20;99.90;;;;;;5007330;28;20194;-90
2022/10/25 06:23:58;;;;;;;6.82;3.30;;;27.60;99.90;;;;;;5011758;28;20206;-90
2022/10/25 06:26:34;;;;;;;5.43;2.55;;;28.60;99.90;;;;;;4995064;28;20301;-89
2022/10/25 06:29:09;;;;;;;5.85;2.88;;;29.50;99.90;;;;;;4981714;28;20207;-89
2022/10/25 06:31:42;;;;;;;6.82;2.42;;;30.20;99.90;;;;;;5006224;28;20544;-89
2022/10/25 06:34:13;;;;;;;17.25;5.15;;;30.60;99.90;;;;;;4986507;28;20621;-89
2022/10/25 06:36:44;;;;;;;16.92;5.07;;;31.00;99.90;;;;;;5006890;28;20206;-89
2022/10/25 06:39:16;;;;;;;17.48;4.63;;;31.20;99.90;;;;;;4993252;28;20640;-88
2022/10/25 06:41:49;;;;;;;9.07;4.30;;;31.30;99.90;;;;;;4973359;28;20651;-90
2022/10/25 06:44:21;;;;;;;13.10;4.45;;;31.20;99.90;;;;;;4973624;28;20210;-91
2022/10/25 06:46:53;;;;;;;11.45;3.90;;;31.60;99.90;;;;;;4996990;28;20201;-88
2022/10/25 06:49:24;;;;;;;10.85;3.83;;;31.80;99.90;;;;;;4999743;28;20191;-89
2022/10/25 06:51:55;;;;;;;11.23;4.28;;;31.70;99.90;;;;;;4999361;28;20348;-89
2022/10/25 06:54:26;;;;;;;15.90;5.25;;;31.50;99.90;;;;;;5012181;28;20210;-88
2022/10/25 06:57:00;;;;;;;13.80;4.40;;;31.40;99.90;;;;;;5010562;28;20277;-88
2022/10/25 06:59:31;;;;;;;9.90;3.78;;;31.30;99.90;;;;;;5006743;28;20212;-87
2022/10/25 07:02:02;;;;;;;8.30;3.67;;;31.30;99.90;;;;;;5009379;28;20281;-87
2022/10/25 07:04:36;;;;;;;9.02;3.45;;;31.20;99.90;;;;;;4995243;28;20658;-87
2022/10/25 07:07:07;;;;;;;9.45;3.30;;;30.90;99.90;;;;;;5012011;28;20268;-87
2022/10/25 07:09:38;;;;;;;6.57;2.92;;;30.10;99.90;;;;;;5037332;28;20259;-85
2022/10/25 07:12:11;;;;;;;8.43;3.45;;;29.60;99.90;;;;;;5018180;28;20233;-86
2022/10/25 07:14:42;;;;;;;6.30;3.20;;;28.90;99.90;;;;;;5020378;28;20208;-86
2022/10/25 07:17:13;;;;;;;10.07;4.18;;;28.30;99.90;;;;;;5013529;28;20204;-85
2022/10/25 07:19:44;;;;;;;7.00;3.78;;;27.80;99.90;;;;;;5011759;28;20209;-87
2022/10/25 07:22:14;;;;;;;7.53;3.35;;;27.30;99.90;;;;;;5014948;28;20262;-87
2022/10/25 07:24:46;;;;;;;10.77;4.07;;;26.80;99.90;;;;;;5015382;28;20201;-86
2022/10/25 07:27:19;;;;;;;7.70;3.50;;;26.50;99.90;;;;;;5014050;28;20312;-87
2022/10/25 07:29:50;;;;;;;8.20;3.40;;;26.30;99.90;;;;;;5013828;28;20200;-86
2022/10/25 07:32:21;;;;;;;6.15;3.30;;;26.00;99.90;;;;;;5014527;28;20233;-87
2022/10/25 07:34:52;;;;;;;8.23;3.63;;;25.80;99.90;;;;;;5013051;28;20208;-86
2022/10/25 07:37:23;;;;;;;9.02;3.25;;;25.50;99.90;;;;;;5017699;28;20194;-86
2022/10/25 07:39:54;;;;;;;6.53;3.35;;;25.30;99.90;;;;;;5015764;28;20206;-85
2022/10/25 07:42:27;;;;;;;6.90;3.30;;;25.00;99.90;;;;;;5018337;28;20224;-86
2022/10/25 07:44:57;;;;;;;6.68;3.50;;;24.90;99.90;;;;;;5014013;28;20202;-86
2022/10/25 07:47:28;;;;;;;8.63;3.67;;;24.70;99.90;;;;;;5022795;28;20212;-86
2022/10/25 07:49:59;;;;;;;7.47;3.33;;;24.60;99.90;;;;;;5033404;28;20265;-86
2022/10/25 07:52:30;;;;;;;7.75;3.28;;;24.50;99.90;;;;;;5017481;28;20229;-85
2022/10/25 07:55:01;;;;;;;11.65;3.95;;;24.50;99.90;;;;;;5014842;28;20205;-86
2022/10/25 07:57:36;;;;;;;9.68;3.90;;;24.50;99.90;;;;;;5015464;28;20208;-85
2022/10/25 08:00:07;;;;;;;9.95;3.50;;;24.40;99.90;;;;;;5000656;28;20198;-87
2022/10/25 08:02:38;;;;;;;8.02;3.50;;;24.30;99.90;;;;;;5011608;28;20198;-87
2022/10/25 08:05:09;;;;;;;11.52;3.47;;;24.20;99.90;;;;;;5028799;28;20736;-87
2022/10/25 08:07:41;;;;;;;10.55;3.60;;;24.20;99.90;;;;;;5028044;28;20225;-86
2022/10/25 08:10:12;;;;;;;7.88;3.55;;;24.10;99.90;;;;;;5029442;28;20198;-86
2022/10/25 08:12:46;;;;;;;10.10;3.30;;;24.00;99.90;;;;;;5024730;28;20234;-85
2022/10/25 08:15:18;;;;;;;8.00;3.47;;;23.90;99.90;;;;;;5014458;28;20194;-87
2022/10/25 08:17:49;;;;;;;10.93;3.70;;;23.90;99.90;;;;;;5013715;28;20292;-87
2022/10/25 08:20:20;;;;;;;8.13;3.35;;;23.70;99.90;;;;;;5011645;28;20194;-87
2022/10/25 08:22:51;;;;;;;9.95;3.40;;;23.60;99.90;;;;;;5013406;28;20202;-87
2022/10/25 08:25:22;;;;;;;6.55;2.67;;;23.50;99.90;;;;;;5005669;28;20676;-88
2022/10/25 08:27:54;;;;;;;7.47;3.00;;;23.40;99.90;;;;;;5017075;28;20228;-87
2022/10/25 08:30:25;;;;;;;9.00;3.50;;;23.40;99.90;;;;;;5009960;28;20198;-85
2022/10/25 08:32:56;;;;;;;6.47;2.80;;;23.40;99.90;;;;;;5000558;28;20282;-86
2022/10/25 08:35:27;;;;;;;8.00;3.00;;;23.40;99.90;;;;;;5009348;28;20221;-87
2022/10/25 08:38:01;;;;;;;7.88;2.75;;;23.30;99.90;;;;;;5004074;28;20194;-87
2022/10/25 08:40:41;;;;;;;9.43;3.10;;;23.30;99.90;;;;;;5010627;28;20229;-87
2022/10/25 08:43:24;;;;;;;9.52;3.08;;;23.30;99.90;;;;;;5001584;28;20205;-87
2022/10/25 08:45:58;;;;;;;5.93;2.53;;;23.20;99.90;;;;;;5022570;28;20197;-87
2022/10/25 08:48:36;;;;;;;8.65;2.97;;;23.10;99.90;;;;;;5024845;28;20331;-86
2022/10/25 08:51:13;;;;;;;8.98;2.95;;;23.10;99.90;;;;;;5030517;28;20224;-86
2022/10/25 08:53:48;;;;;;;9.13;2.70;;;23.10;99.90;;;;;;5021686;28;20200;-86
2022/10/25 08:56:20;;;;;;;8.93;2.53;;;23.10;99.90;;;;;;5013194;28;20198;-86
2022/10/25 08:58:58;;;;;;;7.55;2.70;;;23.00;99.90;;;;;;5013907;28;20334;-87
2022/10/25 09:01:36;;;;;;;4.78;2.40;;;23.00;99.90;;;;;;5012910;28;20201;-87
2022/10/25 09:04:07;;;;;;;7.53;2.60;;;22.90;99.90;;;;;;5012819;28;20202;-86
2022/10/25 09:06:45;;;;;;;9.18;2.58;;;22.90;99.90;;;;;;5004880;28;20569;-86
2022/10/25 09:09:30;;;;;;;9.20;2.60;;;22.90;99.90;;;;;;5006130;28;20193;-87
2022/10/25 09:12:12;;;;;;;8.50;2.70;;;22.90;99.90;;;;;;5010191;28;20194;-85
2022/10/25 09:14:51;;;;;;;12.70;2.90;;;22.80;99.90;;;;;;5014610;28;20265;-87
2022/10/25 09:17:23;;;;;;;7.72;2.60;;;22.80;99.90;;;;;;5007780;28;20289;-87
2022/10/25 09:20:06;;;;;;;10.23;2.97;;;22.70;99.90;;;;;;5013305;28;20194;-86
2022/10/25 09:22:47;;;;;;;8.82;2.53;;;22.70;99.90;;;;;;4997388;28;20190;-87
2022/10/25 09:25:24;;;;;;;10.23;2.80;;;22.70;99.90;;;;;;5012216;28;20202;-87
2022/10/25 09:28:02;;;;;;;8.68;2.72;;;22.60;99.90;;;;;;5013404;28;20310;-87
2022/10/25 09:30:41;;;;;;;8.63;2.65;;;22.60;99.90;;;;;;5004305;28;20579;-87
2022/10/25 09:33:14;;;;;;;5.43;2.58;;;22.60;99.90;;;;;;5012211;28;20201;-87
2022/10/25 09:35:49;;;;;;;7.82;2.67;;;22.50;99.90;;;;;;5012647;28;20217;-88
2022/10/25 09:38:25;;;;;;;11.57;2.88;;;22.50;99.90;;;;;;5011435;28;20288;-86
2022/10/25 09:41:05;;;;;;;8.05;3.15;;;22.50;99.90;;;;;;5012274;28;20197;-86
2022/10/25 09:43:40;;;;;;;11.50;2.88;;;22.50;99.90;;;;;;5007631;28;20203;-84
2022/10/25 09:46:19;;;;;;;9.68;2.97;;;22.50;99.90;;;;;;4996412;28;20206;-84
2022/10/25 09:48:56;;;;;;;9.48;3.15;;;22.50;99.90;;;;;;4997546;28;20229;-85
2022/10/25 09:51:37;;;;;;;11.57;3.08;;;22.40;99.90;;;;;;5008011;28;20238;-85
2022/10/25 09:54:17;;;;;;;8.60;2.80;;;22.40;99.90;;;;;;5009579;28;20202;-85
2022/10/25 09:56:48;;;;;;;10.18;2.85;;;22.40;99.90;;;;;;5003870;28;20670;-83
2022/10/25 09:59:20;;;;;;;9.50;2.83;;;22.40;99.90;;;;;;4992484;28;20198;-84
2022/10/25 10:01:53;;;;;;;7.20;2.60;;;22.50;99.90;;;;;;4986083;28;20188;-84
2022/10/25 10:04:36;;;;;;;10.40;2.85;;;22.50;99.90;;;;;;4989032;28;20202;-87
2022/10/25 10:07:14;;;;;;;10.93;3.13;;;22.50;99.90;;;;;;4980607;28;20222;-87
2022/10/25 10:09:46;;;;;;;8.45;2.70;;;22.50;99.90;;;;;;4986858;28;20198;-88
2022/10/25 10:12:24;;;;;;;7.70;3.00;;;22.50;99.90;;;;;;4996204;28;20205;-85
2022/10/25 10:15:01;;;;;;;9.00;3.05;;;22.50;99.90;;;;;;4995176;28;20191;-85
2022/10/25 10:17:34;;;;;;;6.20;2.45;;;22.50;99.90;;;;;;4984191;28;20205;-86
2022/10/25 10:20:16;;;;;;;10.25;3.22;;;22.50;99.90;;;;;;4987210;28;20294;-86
2022/10/25 10:22:52;;;;;;;9.65;2.50;;;22.40;99.90;;;;;;4983950;28;20666;-85
2022/10/25 10:25:26;;;;;;;8.18;2.80;;;22.40;99.90;;;;;;4990555;28;20191;-86
2022/10/25 10:28:01;;;;;;;11.18;2.95;;;22.40;99.90;;;;;;4981655;28;20777;-86
2022/10/25 10:30:38;;;;;;;7.80;2.80;;;22.30;99.90;;;;;;5000120;28;20206;-87
2022/10/25 10:33:19;;;;;;;9.73;2.85;;;22.40;99.90;;;;;;4995017;28;20206;-87
2022/10/25 10:35:50;;;;;;;9.10;3.15;;;22.40;99.90;;;;;;4995044;28;20203;-87
2022/10/25 10:38:28;;;;;;;7.30;2.88;;;22.40;99.90;;;;;;4997075;28;20217;-87
2022/10/25 10:41:24;;;;;;;4.85;2.63;;;22.40;99.90;;;;;;5001785;28;20194;-88
2022/10/25 10:44:12;;;;;;;7.65;2.50;;;22.40;99.90;;;;;;4982126;28;20294;-88
2022/10/25 10:46:48;;;;;;;7.07;2.80;;;22.40;99.90;;;;;;4996553;28;20281;-85
2022/10/25 10:49:27;;;;;;;9.75;3.40;;;22.40;99.90;;;;;;4995040;28;20234;-86
2022/10/25 10:51:59;;;;;;;9.48;3.15;;;22.40;99.90;;;;;;4987319;28;20230;-86
2022/10/25 10:54:37;;;;;;;8.43;3.00;;;22.50;99.90;;;;;;5010052;28;20236;-86
2022/10/25 10:57:21;;;;;;;8.30;3.30;;;22.50;99.90;;;;;;5008589;28;20233;-85
2022/10/25 10:59:58;;;;;;;7.18;2.97;;;22.50;99.90;;;;;;5025541;28;20309;-87
2022/10/25 11:02:38;;;;;;;6.82;2.97;;;22.50;99.90;;;;;;5016950;28;20201;-86
2022/10/25 11:05:27;;;;;;;8.32;3.20;;;22.50;99.90;;;;;;5013854;28;20198;-87
2022/10/25 11:08:01;;;;;;;6.28;2.75;;;22.40;99.90;;;;;;5003719;28;20222;-86
2022/10/25 11:10:37;;;;;;;6.47;3.15;;;22.40;99.90;;;;;;4997304;28;20559;-85
2022/10/25 11:13:18;;;;;;;7.20;3.10;;;22.40;99.90;;;;;;5011331;28;20216;-85
2022/10/25 11:16:19;;;;;;;8.05;3.35;;;22.40;99.90;;;;;;5030401;28;20280;-85
2022/10/25 11:19:12;;;;;;;8.15;3.03;;;22.40;99.90;;;;;;5010627;28;20213;-85
2022/10/25 11:22:02;;;;;;;8.95;3.15;;;22.40;99.90;;;;;;4997297;28;20222;-84
2022/10/25 11:24:44;;;;;;;4.43;2.65;;;22.40;99.90;;;;;;4995902;28;20206;-85
2022/10/25 11:27:25;;;;;;;5.20;3.10;;;22.40;99.90;;;;;;5008784;28;20198;-85
2022/10/25 11:30:10;;;;;;;6.72;2.90;;;22.40;99.90;;;;;;5013207;28;20657;-87
2022/10/25 11:33:05;;;;;;;8.88;3.38;;;22.40;99.90;;;;;;4998867;28;20205;-85
2022/10/25 11:36:07;;;;;;;6.50;3.20;;;22.50;99.90;;;;;;5025066;28;20201;-86
2022/10/25 11:39:00;;;;;;;4.80;2.65;;;22.50;99.90;;;;;;5015636;28;20237;-87
2022/10/25 11:41:44;;;;;;;4.22;2.60;;;22.50;99.90;;;;;;5012750;28;20236;-85
2022/10/25 11:44:44;;;;;;;5.40;2.78;;;22.50;99.90;;;;;;5013421;28;20202;-86
2022/10/25 11:47:24;;;;;;;11.85;4.25;;;22.50;99.90;;;;;;4993540;28;20187;-86
2022/10/25 11:50:03;;;;;;;10.48;4.40;;;22.50;99.90;;;;;;4999218;28;20205;-84
2022/10/25 11:52:50;;;;;;;10.55;4.78;;;22.40;99.90;;;;;;5022419;28;20229;-85
2022/10/25 11:55:35;;;;;;;9.13;4.10;;;22.30;99.90;;;;;;4995977;28;20284;-85
2022/10/25 11:58:24;;;;;;;6.13;3.95;;;22.30;99.90;;;;;;5014800;28;20202;-84
2022/10/25 12:01:03;;;;;;;9.10;4.47;;;22.30;99.90;;;;;;5020946;28;20194;-85
2022/10/25 12:03:48;;;;;;;8.23;4.20;;;22.20;99.90;;;;;;5028177;28;20245;-86
2022/10/25 12:06:31;;;;;;;9.60;4.32;;;22.20;99.90;;;;;;5012320;28;20200;-85
2022/10/25 12:09:08;;;;;;;7.45;3.85;;;22.20;99.90;;;;;;5025888;28;20209;-86
2022/10/25 12:11:47;;;;;;;7.80;3.58;;;22.10;99.90;;;;;;5034966;28;20181;-85
2022/10/25 12:14:25;;;;;;;7.10;3.40;;;22.10;99.90;;;;;;5037724;28;20190;-85
2022/10/25 12:16:56;;;;;;;5.18;2.90;;;22.00;99.90;;;;;;5011970;28;20201;-84
2022/10/25 12:19:29;;;;;;;4.60;2.60;;;22.00;99.90;;;;;;5012905;28;20206;-85
2022/10/25 12:22:05;;;;;;;6.80;2.85;;;21.90;99.90;;;;;;5013330;28;20300;-85
2022/10/25 12:24:41;;;;;;;6.47;2.80;;;21.80;99.90;;;;;;5003432;28;20202;-85
2022/10/25 12:27:21;;;;;;;5.10;2.60;;;21.80;99.90;;;;;;5026744;28;20197;-85
2022/10/25 12:29:55;;;;;;;5.70;3.00;;;21.80;99.90;;;;;;5010979;28;20225;-86
2022/10/25 12:32:30;;;;;;;6.70;2.92;;;21.80;99.90;;;;;;5009567;28;20193;-86
2022/10/25 12:35:04;;;;;;;4.55;2.60;;;21.80;99.90;;;;;;5012846;28;20197;-85
2022/10/25 12:37:39;;;;;;;4.53;2.60;;;21.90;99.90;;;;;;5014636;28;20205;-85
2022/10/25 12:40:19;;;;;;;5.68;2.90;;;21.90;99.90;;;;;;5011186;28;20563;-86
2022/10/25 12:42:54;;;;;;;7.60;3.30;;;22.00;99.90;;;;;;5017781;28;20227;-86
2022/10/25 12:45:53;;;;;;;7.68;3.20;;;22.00;99.90;;;;;;5018556;28;20185;-84
2022/10/25 12:48:47;;;;;;;6.40;3.58;;;22.00;99.90;;;;;;4996225;28;20222;-85
2022/10/25 12:51:38;;;;;;;5.93;3.10;;;22.00;99.90;;;;;;5001123;28;20236;-83
2022/10/25 12:54:38;;;;;;;6.18;3.28;;;21.90;99.90;;;;;;5014323;28;20610;-83
2022/10/25 12:57:19;;;;;;;5.85;3.20;;;21.90;99.90;;;;;;4983624;28;20203;-84
2022/10/25 13:00:11;;;;;;;5.75;3.33;;;21.90;99.90;;;;;;4996551;28;20564;-84
2022/10/25 13:03:22;;;;;;;10.20;3.63;;;21.90;99.90;;;;;;4987610;28;20198;-85
2022/10/25 13:06:38;;;;;;;6.10;3.80;;;21.90;99.90;;;;;;5004575;28;20178;-83
2022/10/25 13:09:12;;;;;;;9.18;3.40;;;21.90;99.90;;;;;;4914004;29;20229;-84
2022/10/25 13:11:44;;;;;;;8.00;3.85;;;21.90;99.90;;;;;;4977166;28;20199;-85
2022/10/25 13:14:25;;;;;;;7.07;3.47;;;21.90;99.90;;;;;;4997743;28;20213;-84
2022/10/25 13:17:35;;;;;;;6.72;3.47;;;21.80;99.90;;;;;;4979432;28;20202;-85
2022/10/25 13:20:43;;;;;;;5.47;3.40;;;21.80;99.90;;;;;;4973805;28;20219;-85
2022/10/25 13:24:02;;;;;;;7.35;3.58;;;21.80;99.90;;;;;;4988566;28;20666;-85
2022/10/25 13:26:55;;;;;;;6.35;3.60;;;21.70;99.90;;;;;;4984913;28;20210;-85
2022/10/25 13:29:48;;;;;;;5.13;3.75;;;21.70;99.90;;;;;;4999759;28;20222;-85
2022/10/25 13:32:22;;;;;;;5.13;3.40;;;21.70;99.90;;;;;;4994244;28;20666;-85
2022/10/25 13:34:54;;;;;;;7.38;3.80;;;21.70;99.90;;;;;;5001067;28;23016;-85